sensor_id;sensor_type;location;lat;lon;timestamp;pressure;altitude;pressure_sealevel;temperature;humidity
26823;BME280;14852;51.910;8.878;2023-03-23T00:01:48;98630.75;;;15.19;50.71
26823;BME280;14852;51.910;8.878;2023-03-23T00:04:18;98637.91;;;15.17;50.57
26823;BME280;14852;51.910;8.878;2023-03-23T00:06:44;98639.00;;;15.14;51.12
26823;BME280;14852;51.910;8.878;2023-03-23T00:09:14;98630.31;;;15.14;50.90
26823;BME280;14852;51.910;8.878;2023-03-23T00:11:41;98633.50;;;15.08;51.55
26823;BME280;14852;51.910;8.878;2023-03-23T00:14:08;98641.47;;;15.06;51.25
26823;BME280;14852;51.910;8.878;2023-03-23T00:16:41;98640.66;;;15.06;51.16
26823;BME280;14852;51.910;8.878;2023-03-23T00:19:11;98633.63;;;15.06;51.32
26823;BME280;14852;51.910;8.878;2023-03-23T00:21:42;98633.75;;;15.05;51.73
26823;BME280;14852;51.910;8.878;2023-03-23T00:24:17;98614.50;;;15.06;51.56
26823;BME280;14852;51.910;8.878;2023-03-23T00:26:46;98622.59;;;15.03;51.56
26823;BME280;14852;51.910;8.878;2023-03-23T00:29:16;98619.16;;;15.02;51.52
26823;BME280;14852;51.910;8.878;2023-03-23T00:31:44;98622.59;;;15.03;51.72
26823;BME280;14852;51.910;8.878;2023-03-23T00:34:22;98612.84;;;15.05;51.65
26823;BME280;14852;51.910;8.878;2023-03-23T00:36:53;98608.56;;;15.04;51.62
26823;BME280;14852;51.910;8.878;2023-03-23T00:39:23;98609.53;;;15.03;51.97
26823;BME280;14852;51.910;8.878;2023-03-23T00:41:53;98605.25;;;15.02;51.97
26823;BME280;14852;51.910;8.878;2023-03-23T00:44:20;98623.03;;;14.98;52.12
26823;BME280;14852;51.910;8.878;2023-03-23T00:46:49;98618.06;;;14.95;51.91
26823;BME280;14852;51.910;8.878;2023-03-23T00:49:18;98617.38;;;14.93;52.51
26823;BME280;14852;51.910;8.878;2023-03-23T00:51:45;98617.63;;;14.90;52.26
26823;BME280;14852;51.910;8.878;2023-03-23T00:54:11;98616.97;;;14.88;52.16
26823;BME280;14852;51.910;8.878;2023-03-23T00:56:38;98622.19;;;14.88;52.58
26823;BME280;14852;51.910;8.878;2023-03-23T00:59:07;98614.59;;;14.85;52.70
26823;BME280;14852;51.910;8.878;2023-03-23T01:01:33;98609.63;;;14.82;53.23
26823;BME280;14852;51.910;8.878;2023-03-23T01:04:01;98607.28;;;14.79;52.85
26823;BME280;14852;51.910;8.878;2023-03-23T01:06:34;98596.81;;;14.79;53.34
26823;BME280;14852;51.910;8.878;2023-03-23T01:09:02;98593.50;;;14.77;52.93
26823;BME280;14852;51.910;8.878;2023-03-23T01:11:29;98587.50;;;14.76;53.14
26823;BME280;14852;51.910;8.878;2023-03-23T01:13:55;98587.19;;;14.79;53.19
26823;BME280;14852;51.910;8.878;2023-03-23T01:16:21;98588.97;;;14.79;52.96
26823;BME280;14852;51.910;8.878;2023-03-23T01:18:47;98581.97;;;14.79;53.22
26823;BME280;14852;51.910;8.878;2023-03-23T01:21:16;98578.38;;;14.80;53.50
26823;BME280;14852;51.910;8.878;2023-03-23T01:23:43;98582.25;;;14.76;53.36
26823;BME280;14852;51.910;8.878;2023-03-23T01:26:12;98578.66;;;14.77;53.37
26823;BME280;14852;51.910;8.878;2023-03-23T01:28:39;98569.03;;;14.78;53.29
26823;BME280;14852;51.910;8.878;2023-03-23T01:31:12;98559.13;;;14.81;53.11
26823;BME280;14852;51.910;8.878;2023-03-23T01:33:39;98571.50;;;14.79;53.33
26823;BME280;14852;51.910;8.878;2023-03-23T01:36:13;98558.28;;;14.81;53.37
26823;BME280;14852;51.910;8.878;2023-03-23T01:38:45;98574.81;;;14.81;53.29
26823;BME280;14852;51.910;8.878;2023-03-23T01:41:13;98555.56;;;14.82;53.78
26823;BME280;14852;51.910;8.878;2023-03-23T01:47:01;98571.25;;;14.82;53.25
26823;BME280;14852;51.910;8.878;2023-03-23T01:49:33;98584.06;;;14.85;53.34
26823;BME280;14852;51.910;8.878;2023-03-23T01:52:09;98567.28;;;14.88;53.04
26823;BME280;14852;51.910;8.878;2023-03-23T01:54:44;98575.91;;;14.89;53.48
26823;BME280;14852;51.910;8.878;2023-03-23T01:57:15;98568.91;;;14.89;53.33
26823;BME280;14852;51.910;8.878;2023-03-23T01:59:46;98573.16;;;14.90;53.30
26823;BME280;14852;51.910;8.878;2023-03-23T02:02:24;98568.06;;;14.89;53.60
26823;BME280;14852;51.910;8.878;2023-03-23T02:04:51;98570.69;;;14.89;53.44
26823;BME280;14852;51.910;8.878;2023-03-23T02:07:20;98567.09;;;14.90;53.69
26823;BME280;14852;51.910;8.878;2023-03-23T02:09:50;98571.66;;;14.88;54.08
26823;BME280;14852;51.910;8.878;2023-03-23T02:12:18;98575.66;;;14.82;54.08
26823;BME280;14852;51.910;8.878;2023-03-23T02:14:45;98551.53;;;14.78;54.31
26823;BME280;14852;51.910;8.878;2023-03-23T02:29:50;98559.22;;;14.61;54.71
26823;BME280;14852;51.910;8.878;2023-03-23T02:32:48;98540.25;;;14.59;54.85
26823;BME280;14852;51.910;8.878;2023-03-23T02:35:35;98535.97;;;14.58;55.26
26823;BME280;14852;51.910;8.878;2023-03-23T02:38:18;98541.19;;;14.58;54.83
26823;BME280;14852;51.910;8.878;2023-03-23T02:40:48;98545.84;;;14.54;55.42
26823;BME280;14852;51.910;8.878;2023-03-23T02:43:20;98529.22;;;14.55;55.00
26823;BME280;14852;51.910;8.878;2023-03-23T02:45:46;98532.94;;;14.53;55.35
26823;BME280;14852;51.910;8.878;2023-03-23T02:48:15;98533.22;;;14.49;55.59
26823;BME280;14852;51.910;8.878;2023-03-23T02:50:49;98539.41;;;14.48;55.53
26823;BME280;14852;51.910;8.878;2023-03-23T02:53:22;98542.84;;;14.49;55.40
26823;BME280;14852;51.910;8.878;2023-03-23T02:55:52;98560.31;;;14.48;55.72
26823;BME280;14852;51.910;8.878;2023-03-23T02:58:21;98561.13;;;14.49;55.49
26823;BME280;14852;51.910;8.878;2023-03-23T03:00:51;98562.78;;;14.50;55.53
26823;BME280;14852;51.910;8.878;2023-03-23T03:03:24;98564.44;;;14.51;55.60
26823;BME280;14852;51.910;8.878;2023-03-23T03:06:27;98555.53;;;14.54;55.69
26823;BME280;14852;51.910;8.878;2023-03-23T03:09:05;98547.38;;;14.47;56.35
26823;BME280;14852;51.910;8.878;2023-03-23T03:11:35;98533.06;;;14.41;56.25
26823;BME280;14852;51.910;8.878;2023-03-23T03:14:31;98515.97;;;14.37;55.89
26823;BME280;14852;51.910;8.878;2023-03-23T03:17:14;98506.84;;;14.32;56.18
26823;BME280;14852;51.910;8.878;2023-03-23T03:19:45;98502.06;;;14.27;56.54
26823;BME280;14852;51.910;8.878;2023-03-23T03:22:14;98504.09;;;14.24;56.89
26823;BME280;14852;51.910;8.878;2023-03-23T03:24:41;98494.59;;;14.23;56.67
26823;BME280;14852;51.910;8.878;2023-03-23T03:27:18;98504.94;;;14.24;56.39
26823;BME280;14852;51.910;8.878;2023-03-23T03:29:58;98506.00;;;14.22;56.73
26823;BME280;14852;51.910;8.878;2023-03-23T03:32:34;98505.31;;;14.20;56.69
26823;BME280;14852;51.910;8.878;2023-03-23T03:35:02;98507.50;;;14.14;56.85
26823;BME280;14852;51.910;8.878;2023-03-23T03:37:34;98508.34;;;14.15;56.65
26823;BME280;14852;51.910;8.878;2023-03-23T03:40:06;98496.25;;;14.14;56.99
26823;BME280;14852;51.910;8.878;2023-03-23T03:42:42;98493.75;;;14.12;57.22
26823;BME280;14852;51.910;8.878;2023-03-23T03:45:11;98495.66;;;14.10;57.19
26823;BME280;14852;51.910;8.878;2023-03-23T03:47:37;98500.34;;;14.07;57.14
26823;BME280;14852;51.910;8.878;2023-03-23T03:50:04;98489.06;;;14.06;57.33
26823;BME280;14852;51.910;8.878;2023-03-23T03:52:31;98491.53;;;14.08;56.93
26823;BME280;14852;51.910;8.878;2023-03-23T03:54:57;98488.38;;;14.04;57.91
26823;BME280;14852;51.910;8.878;2023-03-23T03:57:24;98489.91;;;14.07;57.36
26823;BME280;14852;51.910;8.878;2023-03-23T04:00:13;98500.06;;;14.10;57.20
26823;BME280;14852;51.910;8.878;2023-03-23T04:02:45;98479.28;;;14.08;57.77
26823;BME280;14852;51.910;8.878;2023-03-23T04:05:18;98468.19;;;14.06;57.63
26823;BME280;14852;51.910;8.878;2023-03-23T04:07:47;98463.91;;;14.05;57.52
26823;BME280;14852;51.910;8.878;2023-03-23T04:10:19;98464.19;;;14.02;57.76
26823;BME280;14852;51.910;8.878;2023-03-23T04:12:48;98471.19;;;14.02;58.09
26823;BME280;14852;51.910;8.878;2023-03-23T04:15:50;98468.44;;;14.03;57.84
26823;BME280;14852;51.910;8.878;2023-03-23T04:18:17;98470.22;;;14.03;57.13
26823;BME280;14852;51.910;8.878;2023-03-23T04:20:46;98468.44;;;14.03;57.61
26823;BME280;14852;51.910;8.878;2023-03-23T04:23:15;98480.53;;;14.04;57.55
26823;BME280;14852;51.910;8.878;2023-03-23T04:25:46;98465.97;;;14.02;57.65
26823;BME280;14852;51.910;8.878;2023-03-23T04:28:15;98461.56;;;14.02;57.48
26823;BME280;14852;51.910;8.878;2023-03-23T04:31:04;98474.50;;;14.04;57.34
26823;BME280;14852;51.910;8.878;2023-03-23T04:33:30;98464.19;;;14.02;57.82
26823;BME280;14852;51.910;8.878;2023-03-23T04:36:00;98469.53;;;14.01;57.26
26823;BME280;14852;51.910;8.878;2023-03-23T04:38:52;98477.50;;;13.99;57.76
26823;BME280;14852;51.910;8.878;2023-03-23T04:41:24;98475.00;;;13.98;57.79
26823;BME280;14852;51.910;8.878;2023-03-23T04:44:09;98470.75;;;13.97;57.62
26823;BME280;14852;51.910;8.878;2023-03-23T04:46:45;98475.13;;;13.96;57.38
26823;BME280;14852;51.910;8.878;2023-03-23T04:49:16;98477.06;;;13.94;57.75
26823;BME280;14852;51.910;8.878;2023-03-23T04:51:47;98471.03;;;13.94;57.45
26823;BME280;14852;51.910;8.878;2023-03-23T04:54:31;98470.34;;;13.92;57.66
26823;BME280;14852;51.910;8.878;2023-03-23T04:57:00;98478.88;;;13.94;57.92
26823;BME280;14852;51.910;8.878;2023-03-23T04:59:26;98479.81;;;13.93;57.65
26823;BME280;14852;51.910;8.878;2023-03-23T05:02:11;98484.91;;;13.94;57.43
26823;BME280;14852;51.910;8.878;2023-03-23T05:04:39;98500.59;;;13.94;57.51
26823;BME280;14852;51.910;8.878;2023-03-23T05:07:12;98493.41;;;13.96;57.33
26823;BME280;14852;51.910;8.878;2023-03-23T05:09:47;98496.72;;;13.98;57.52
26823;BME280;14852;51.910;8.878;2023-03-23T05:12:14;98494.25;;;13.97;57.38
26823;BME280;14852;51.910;8.878;2023-03-23T05:15:07;98507.03;;;14.00;57.45
26823;BME280;14852;51.910;8.878;2023-03-23T05:17:35;98506.09;;;14.01;57.52
26823;BME280;14852;51.910;8.878;2023-03-23T05:20:09;98510.34;;;14.02;57.48
26823;BME280;14852;51.910;8.878;2023-03-23T05:22:44;98503.34;;;14.02;57.53
26823;BME280;14852;51.910;8.878;2023-03-23T05:25:13;98507.34;;;14.06;57.48
26823;BME280;14852;51.910;8.878;2023-03-23T05:27:44;98518.34;;;14.10;57.33
26823;BME280;14852;51.910;8.878;2023-03-23T05:30:21;98513.00;;;14.11;57.41
26823;BME280;14852;51.910;8.878;2023-03-23T05:32:49;98505.72;;;14.15;56.89
26823;BME280;14852;51.910;8.878;2023-03-23T05:35:36;98491.72;;;14.16;57.25
26823;BME280;14852;51.910;8.878;2023-03-23T05:38:02;98491.72;;;14.16;57.25
26823;BME280;14852;51.910;8.878;2023-03-23T05:40:30;98493.50;;;14.16;57.25
26823;BME280;14852;51.910;8.878;2023-03-23T05:43:12;98487.44;;;14.15;57.07
26823;BME280;14852;51.910;8.878;2023-03-23T05:45:51;98486.63;;;14.14;56.77
26823;BME280;14852;51.910;8.878;2023-03-23T05:48:16;98483.06;;;14.16;57.06
26823;BME280;14852;51.910;8.878;2023-03-23T05:50:42;98473.44;;;14.16;57.38
26823;BME280;14852;51.910;8.878;2023-03-23T05:53:08;98469.72;;;14.19;56.74
26823;BME280;14852;51.910;8.878;2023-03-23T05:55:37;98464.63;;;14.17;57.12
26823;BME280;14852;51.910;8.878;2023-03-23T05:58:19;98467.78;;;14.21;56.86
26823;BME280;14852;51.910;8.878;2023-03-23T06:00:46;98481.66;;;14.21;56.85
26823;BME280;14852;51.910;8.878;2023-03-23T06:03:19;98488.03;;;14.28;56.53
26823;BME280;14852;51.910;8.878;2023-03-23T06:05:53;98468.09;;;14.27;56.86
26823;BME280;14852;51.910;8.878;2023-03-23T06:08:22;98468.91;;;14.28;57.15
26823;BME280;14852;51.910;8.878;2023-03-23T06:10:48;98476.63;;;14.29;56.65
26823;BME280;14852;51.910;8.878;2023-03-23T06:13:14;98472.22;;;14.30;56.76
26823;BME280;14852;51.910;8.878;2023-03-23T06:15:47;98485.00;;;14.33;56.87
26823;BME280;14852;51.910;8.878;2023-03-23T06:18:13;98495.31;;;14.34;57.29
26823;BME280;14852;51.910;8.878;2023-03-23T06:20:46;98491.38;;;14.40;56.93
26823;BME280;14852;51.910;8.878;2023-03-23T06:23:24;98499.63;;;14.45;56.71
26823;BME280;14852;51.910;8.878;2023-03-23T06:25:57;98509.13;;;14.56;56.73
26823;BME280;14852;51.910;8.878;2023-03-23T06:28:24;98498.16;;;14.62;56.61
26823;BME280;14852;51.910;8.878;2023-03-23T06:30:50;98497.19;;;14.72;56.69
26823;BME280;14852;51.910;8.878;2023-03-23T06:33:16;98505.16;;;14.80;56.43
26823;BME280;14852;51.910;8.878;2023-03-23T06:36:17;98502.84;;;14.87;56.25
26823;BME280;14852;51.910;8.878;2023-03-23T06:38:49;98507.78;;;14.90;56.25
26823;BME280;14852;51.910;8.878;2023-03-23T06:41:20;98511.22;;;14.91;56.30
26823;BME280;14852;51.910;8.878;2023-03-23T06:43:46;98514.53;;;14.93;55.99
26823;BME280;14852;51.910;8.878;2023-03-23T06:46:17;98519.91;;;14.91;56.53
26823;BME280;14852;51.910;8.878;2023-03-23T06:49:02;98506.81;;;14.91;56.42
26823;BME280;14852;51.910;8.878;2023-03-23T06:51:37;98505.31;;;14.98;56.35
26823;BME280;14852;51.910;8.878;2023-03-23T06:54:04;98515.50;;;15.01;56.40
26823;BME280;14852;51.910;8.878;2023-03-23T06:56:34;98522.81;;;14.98;56.35
26823;BME280;14852;51.910;8.878;2023-03-23T06:59:01;98510.25;;;15.01;55.96
26823;BME280;14852;51.910;8.878;2023-03-23T07:01:26;98522.38;;;15.02;56.27
26823;BME280;14852;51.910;8.878;2023-03-23T07:03:58;98514.81;;;15.09;56.44
26823;BME280;14852;51.910;8.878;2023-03-23T07:06:35;98512.72;;;15.32;55.67
26823;BME280;14852;51.910;8.878;2023-03-23T07:09:01;98520.94;;;15.46;55.54
26823;BME280;14852;51.910;8.878;2023-03-23T07:11:28;98510.75;;;15.63;55.01
26823;BME280;14852;51.910;8.878;2023-03-23T07:13:58;98522.66;;;15.84;54.64
26823;BME280;14852;51.910;8.878;2023-03-23T07:16:23;98522.25;;;15.89;54.35
26823;BME280;14852;51.910;8.878;2023-03-23T07:18:51;98527.53;;;15.79;54.85
26823;BME280;14852;51.910;8.878;2023-03-23T07:21:17;98522.16;;;15.71;54.81
26823;BME280;14852;51.910;8.878;2023-03-23T07:23:43;98528.88;;;15.83;55.17
26823;BME280;14852;51.910;8.878;2023-03-23T07:26:16;98524.81;;;15.99;54.28
26823;BME280;14852;51.910;8.878;2023-03-23T07:28:48;98530.78;;;16.18;54.13
26823;BME280;14852;51.910;8.878;2023-03-23T07:31:22;98512.66;;;16.52;53.04
26823;BME280;14852;51.910;8.878;2023-03-23T07:33:49;98532.06;;;16.42;53.37
26823;BME280;14852;51.910;8.878;2023-03-23T07:36:15;98522.31;;;16.34;53.90
26823;BME280;14852;51.910;8.878;2023-03-23T07:38:42;98532.53;;;16.27;54.30
26823;BME280;14852;51.910;8.878;2023-03-23T07:41:09;98534.50;;;16.25;54.35
26823;BME280;14852;51.910;8.878;2023-03-23T07:43:37;98531.91;;;16.43;53.72
26823;BME280;14852;51.910;8.878;2023-03-23T07:46:09;98534.72;;;16.59;53.45
26823;BME280;14852;51.910;8.878;2023-03-23T07:48:49;98542.44;;;16.61;53.06
26823;BME280;14852;51.910;8.878;2023-03-23T07:51:17;98543.88;;;16.73;53.10
26823;BME280;14852;51.910;8.878;2023-03-23T07:53:46;98540.59;;;16.89;53.21
26823;BME280;14852;51.910;8.878;2023-03-23T07:56:32;98549.91;;;17.01;53.04
26823;BME280;14852;51.910;8.878;2023-03-23T07:59:12;98538.66;;;16.91;52.75
26823;BME280;14852;51.910;8.878;2023-03-23T08:01:40;98544.50;;;16.85;53.70
26823;BME280;14852;51.910;8.878;2023-03-23T08:04:24;98542.19;;;16.82;53.54
26823;BME280;14852;51.910;8.878;2023-03-23T08:07:25;98551.84;;;16.81;53.71
26823;BME280;14852;51.910;8.878;2023-03-23T08:09:51;98558.06;;;16.80;53.19
26823;BME280;14852;51.910;8.878;2023-03-23T08:12:44;98548.25;;;16.82;53.73
26823;BME280;14852;51.910;8.878;2023-03-23T08:15:23;98542.69;;;16.85;53.30
26823;BME280;14852;51.910;8.878;2023-03-23T08:18:09;98545.16;;;16.87;52.83
26823;BME280;14852;51.910;8.878;2023-03-23T08:20:55;98540.31;;;16.92;53.19
26823;BME280;14852;51.910;8.878;2023-03-23T08:23:42;98541.97;;;16.93;53.17
26823;BME280;14852;51.910;8.878;2023-03-23T08:26:22;98543.75;;;16.92;52.78
26823;BME280;14852;51.910;8.878;2023-03-23T08:28:47;98553.78;;;16.97;53.04
26823;BME280;14852;51.910;8.878;2023-03-23T08:31:32;98540.38;;;17.00;52.89
26823;BME280;14852;51.910;8.878;2023-03-23T08:34:05;98549.69;;;17.12;52.37
26823;BME280;14852;51.910;8.878;2023-03-23T08:36:37;98553.66;;;17.16;52.12
26823;BME280;14852;51.910;8.878;2023-03-23T08:39:16;98556.13;;;17.18;52.60
26823;BME280;14852;51.910;8.878;2023-03-23T08:42:00;98543.59;;;17.12;52.20
26823;BME280;14852;51.910;8.878;2023-03-23T08:44:44;98544.44;;;17.12;52.48
26823;BME280;14852;51.910;8.878;2023-03-23T08:47:18;98548.31;;;17.08;52.73
26823;BME280;14852;51.910;8.878;2023-03-23T08:49:45;98549.47;;;17.06;52.53
26823;BME280;14852;51.910;8.878;2023-03-23T08:52:36;98547.97;;;17.03;52.63
26823;BME280;14852;51.910;8.878;2023-03-23T08:55:28;98558.38;;;17.13;51.91
26823;BME280;14852;51.910;8.878;2023-03-23T08:58:09;98544.00;;;17.17;52.13
26823;BME280;14852;51.910;8.878;2023-03-23T09:00:58;98544.56;;;17.28;52.08
26823;BME280;14852;51.910;8.878;2023-03-23T09:03:48;98557.84;;;17.27;51.72
26823;BME280;14852;51.910;8.878;2023-03-23T09:06:43;98545.91;;;17.32;51.79
26823;BME280;14852;51.910;8.878;2023-03-23T09:09:11;98550.41;;;17.40;51.86
26823;BME280;14852;51.910;8.878;2023-03-23T09:11:38;98557.47;;;17.40;51.38
26823;BME280;14852;51.910;8.878;2023-03-23T09:14:05;98558.34;;;17.48;51.41
26823;BME280;14852;51.910;8.878;2023-03-23T09:16:32;98570.78;;;17.46;50.67
26823;BME280;14852;51.910;8.878;2023-03-23T09:18:59;98554.50;;;17.43;50.84
26823;BME280;14852;51.910;8.878;2023-03-23T09:21:26;98569.47;;;17.42;50.88
26823;BME280;14852;51.910;8.878;2023-03-23T09:23:53;98560.22;;;17.38;50.99
26823;BME280;14852;51.910;8.878;2023-03-23T09:26:22;98568.63;;;17.42;50.61
26823;BME280;14852;51.910;8.878;2023-03-23T09:28:48;98572.28;;;17.49;50.75
26823;BME280;14852;51.910;8.878;2023-03-23T09:31:14;98580.84;;;17.51;50.89
26823;BME280;14852;51.910;8.878;2023-03-23T09:33:39;98579.19;;;17.50;51.09
26823;BME280;14852;51.910;8.878;2023-03-23T09:36:06;98574.78;;;17.50;50.89
26823;BME280;14852;51.910;8.878;2023-03-23T09:38:33;98588.34;;;17.46;50.71
26823;BME280;14852;51.910;8.878;2023-03-23T09:44:18;98582.34;;;17.53;50.93
26823;BME280;14852;51.910;8.878;2023-03-23T09:52:18;98611.31;;;17.44;50.39
26823;BME280;14852;51.910;8.878;2023-03-23T09:54:49;98619.50;;;17.41;50.43
26823;BME280;14852;51.910;8.878;2023-03-23T09:57:38;98606.38;;;17.41;50.40
26823;BME280;14852;51.910;8.878;2023-03-23T10:00:21;98603.28;;;17.45;50.19
26823;BME280;14852;51.910;8.878;2023-03-23T10:03:05;98615.81;;;17.51;49.63
26823;BME280;14852;51.910;8.878;2023-03-23T10:05:35;98601.50;;;17.63;49.67
26823;BME280;14852;51.910;8.878;2023-03-23T10:08:13;98606.97;;;17.70;49.47
26823;BME280;14852;51.910;8.878;2023-03-23T10:11:02;98611.53;;;17.68;49.41
26823;BME280;14852;51.910;8.878;2023-03-23T10:16:34;98619.19;;;17.61;49.08
26823;BME280;14852;51.910;8.878;2023-03-23T10:19:25;98612.72;;;17.56;48.91
26823;BME280;14852;51.910;8.878;2023-03-23T10:22:08;98618.44;;;17.51;49.52
26823;BME280;14852;51.910;8.878;2023-03-23T10:24:45;98617.47;;;17.52;49.21
26823;BME280;14852;51.910;8.878;2023-03-23T10:27:27;98626.00;;;17.54;49.31
26823;BME280;14852;51.910;8.878;2023-03-23T10:30:24;98613.19;;;17.51;48.80
26823;BME280;14852;51.910;8.878;2023-03-23T10:33:01;98598.16;;;17.61;49.14
26823;BME280;14852;51.910;8.878;2023-03-23T10:35:53;98595.25;;;17.90;48.90
26823;BME280;14852;51.910;8.878;2023-03-23T10:38:53;98594.59;;;18.14;48.46
26823;BME280;14852;51.910;8.878;2023-03-23T10:41:18;98596.16;;;18.33;48.22
26823;BME280;14852;51.910;8.878;2023-03-23T10:43:45;98593.34;;;18.60;47.49
26823;BME280;14852;51.910;8.878;2023-03-23T10:46:41;98588.81;;;18.87;47.49
26823;BME280;14852;51.910;8.878;2023-03-23T10:49:21;98581.59;;;19.05;47.54
26823;BME280;14852;51.910;8.878;2023-03-23T10:54:56;98583.44;;;19.21;47.19
26823;BME280;14852;51.910;8.878;2023-03-23T10:57:28;98581.97;;;19.34;46.73
26823;BME280;14852;51.910;8.878;2023-03-23T11:02:42;98587.41;;;19.33;46.47
26823;BME280;14852;51.910;8.878;2023-03-23T11:05:21;98604.34;;;19.22;46.28
26823;BME280;14852;51.910;8.878;2023-03-23T11:07:57;98591.50;;;19.03;46.33
26823;BME280;14852;51.910;8.878;2023-03-23T11:10:35;98603.47;;;18.89;46.23
26823;BME280;14852;51.910;8.878;2023-03-23T11:13:01;98595.88;;;18.78;46.47
26823;BME280;14852;51.910;8.878;2023-03-23T11:15:36;98605.38;;;18.71;46.65
26823;BME280;14852;51.910;8.878;2023-03-23T11:18:12;98604.69;;;18.61;46.71
26823;BME280;14852;51.910;8.878;2023-03-23T11:20:43;98624.50;;;18.47;46.70
26823;BME280;14852;51.910;8.878;2023-03-23T11:23:28;98613.25;;;18.37;46.48
26823;BME280;14852;51.910;8.878;2023-03-23T11:31:44;98623.13;;;18.35;47.19
26823;BME280;14852;51.910;8.878;2023-03-23T11:34:24;98625.75;;;18.35;46.67
26823;BME280;14852;51.910;8.878;2023-03-23T11:36:57;98642.03;;;18.38;46.59
26823;BME280;14852;51.910;8.878;2023-03-23T11:39:34;98637.09;;;18.35;46.35
26823;BME280;14852;51.910;8.878;2023-03-23T11:42:12;98624.88;;;18.26;46.58
26823;BME280;14852;51.910;8.878;2023-03-23T11:44:43;98634.53;;;18.18;46.89
26823;BME280;14852;51.910;8.878;2023-03-23T11:47:39;98647.66;;;18.09;46.64
26823;BME280;14852;51.910;8.878;2023-03-23T11:50:27;98663.88;;;18.05;46.79
26823;BME280;14852;51.910;8.878;2023-03-23T11:53:11;98678.03;;;17.86;47.59
26823;BME280;14852;51.910;8.878;2023-03-23T11:58:16;98699.13;;;17.14;49.80
26823;BME280;14852;51.910;8.878;2023-03-23T12:00:58;98712.03;;;16.80;50.64
26823;BME280;14852;51.910;8.878;2023-03-23T12:16:22;98704.69;;;16.27;51.34
26823;BME280;14852;51.910;8.878;2023-03-23T12:21:56;98704.31;;;16.22;51.51
26823;BME280;14852;51.910;8.878;2023-03-23T12:27:33;98709.88;;;16.00;51.39
26823;BME280;14852;51.910;8.878;2023-03-23T12:30:55;98702.28;;;15.97;51.44
26823;BME280;14852;51.910;8.878;2023-03-23T12:33:51;98718.81;;;16.07;51.47
26823;BME280;14852;51.910;8.878;2023-03-23T12:36:42;98716.75;;;16.10;51.40
26823;BME280;14852;51.910;8.878;2023-03-23T12:43:11;98696.03;;;16.17;51.63
26823;BME280;14852;51.910;8.878;2023-03-23T12:48:20;98689.56;;;16.21;51.67
26823;BME280;14852;51.910;8.878;2023-03-23T12:51:27;98697.16;;;16.24;51.37
26823;BME280;14852;51.910;8.878;2023-03-23T12:54:30;98699.75;;;16.24;51.29
26823;BME280;14852;51.910;8.878;2023-03-23T13:00:24;98702.94;;;16.18;51.61
26823;BME280;14852;51.910;8.878;2023-03-23T13:09:08;98705.03;;;16.14;52.06
26823;BME280;14852;51.910;8.878;2023-03-23T13:11:40;98709.44;;;16.14;52.40
26823;BME280;14852;51.910;8.878;2023-03-23T13:14:41;98715.22;;;16.17;52.15
26823;BME280;14852;51.910;8.878;2023-03-23T13:17:47;98709.97;;;16.17;52.45
26823;BME280;14852;51.910;8.878;2023-03-23T13:25:56;98709.97;;;16.17;52.67
26823;BME280;14852;51.910;8.878;2023-03-23T13:28:28;98709.44;;;16.14;52.62
26823;BME280;14852;51.910;8.878;2023-03-23T13:31:00;98714.81;;;16.12;52.93
26823;BME280;14852;51.910;8.878;2023-03-23T13:33:33;98700.63;;;16.15;52.58
26823;BME280;14852;51.910;8.878;2023-03-23T13:36:10;98708.88;;;16.10;52.98
26823;BME280;14852;51.910;8.878;2023-03-23T13:38:38;98721.31;;;16.08;52.99
26823;BME280;14852;51.910;8.878;2023-03-23T13:41:11;98718.56;;;16.00;53.32
26823;BME280;14852;51.910;8.878;2023-03-23T13:43:40;98731.78;;;15.99;53.70
26823;BME280;14852;51.910;8.878;2023-03-23T13:46:11;98714.44;;;15.88;53.93
26823;BME280;14852;51.910;8.878;2023-03-23T13:48:50;98705.75;;;15.78;53.80
26823;BME280;14852;51.910;8.878;2023-03-23T13:54:30;98727.22;;;15.52;54.11
26823;BME280;14852;51.910;8.878;2023-03-23T13:57:02;98720.88;;;15.45;54.50
26823;BME280;14852;51.910;8.878;2023-03-23T13:59:35;98718.78;;;15.39;54.49
26823;BME280;14852;51.910;8.878;2023-03-23T14:02:36;98708.44;;;15.38;54.19
26823;BME280;14852;51.910;8.878;2023-03-23T14:10:57;98710.34;;;15.26;54.72
26823;BME280;14852;51.910;8.878;2023-03-23T14:16:40;98713.41;;;15.21;54.93
26823;BME280;14852;51.910;8.878;2023-03-23T14:19:25;98719.16;;;15.25;55.03
26823;BME280;14852;51.910;8.878;2023-03-23T14:22:00;98726.06;;;15.26;54.99
26823;BME280;14852;51.910;8.878;2023-03-23T14:24:40;98712.97;;;15.26;55.16
26823;BME280;14852;51.910;8.878;2023-03-23T14:27:15;98716.28;;;15.28;55.35
26823;BME280;14852;51.910;8.878;2023-03-23T14:29:42;98708.84;;;15.23;55.42
26823;BME280;14852;51.910;8.878;2023-03-23T14:32:15;98718.47;;;15.23;55.45
26823;BME280;14852;51.910;8.878;2023-03-23T14:34:42;98725.53;;;15.23;56.05
26823;BME280;14852;51.910;8.878;2023-03-23T14:37:15;98733.22;;;15.24;56.24
26823;BME280;14852;51.910;8.878;2023-03-23T14:39:47;98727.31;;;15.22;55.70
26823;BME280;14852;51.910;8.878;2023-03-23T14:42:35;98721.91;;;15.23;55.89
26823;BME280;14852;51.910;8.878;2023-03-23T14:45:04;98711.06;;;15.28;56.42
26823;BME280;14852;51.910;8.878;2023-03-23T14:47:34;98714.66;;;15.37;56.08
26823;BME280;14852;51.910;8.878;2023-03-23T14:50:05;98728.44;;;15.39;56.22
26823;BME280;14852;51.910;8.878;2023-03-23T14:52:36;98723.75;;;15.33;56.41
26823;BME280;14852;51.910;8.878;2023-03-23T14:55:19;98745.66;;;15.32;56.28
26823;BME280;14852;51.910;8.878;2023-03-23T14:57:50;98728.16;;;15.23;56.50
26823;BME280;14852;51.910;8.878;2023-03-23T15:00:28;98723.16;;;15.19;57.13
26823;BME280;14852;51.910;8.878;2023-03-23T15:02:57;98707.03;;;15.24;56.64
26823;BME280;14852;51.910;8.878;2023-03-23T15:05:35;98690.94;;;15.29;56.93
26823;BME280;14852;51.910;8.878;2023-03-23T15:08:33;98690.69;;;15.32;56.62
26823;BME280;14852;51.910;8.878;2023-03-23T15:13:50;98717.00;;;15.30;56.60
26823;BME280;14852;51.910;8.878;2023-03-23T15:16:26;98722.91;;;15.32;56.60